This is the latest recevied weather packets stored in our database for station/object 9W2CEW-1. If no packets are shown the sender has not sent any weather packets the latest 10 day(s).
| Time | Temp. | Humidity | Pressure | Rain* | Wind** | Luminosity | Snow |
|---|---|---|---|---|---|---|---|
| 1787377096 | 38.89° C | 36% | 1004.8 hPa | - | - | - | - |
| 1787376195 | 38.89° C | 37% | 1005.1 hPa | - | - | - | - |
| 1787375296 | 38.89° C | 37% | 1005.4 hPa | - | - | - | - |
| 1787374395 | 37.78° C | 39% | 1005.6 hPa | - | - | - | - |
| 1787373495 | 37.22° C | 41% | 1005.7 hPa | - | - | - | - |
| 1787373421 | 35.56° C | 45% | 1006.4 hPa | - | - | - | - |
| 1787372595 | 38.89° C | 37% | 1006.2 hPa | - | - | - | - |
| 1787371695 | 38.89° C | 36% | 1006.2 hPa | - | - | - | - |
| 1787370795 | 36.67° C | 40% | 1006.3 hPa | - | - | - | - |
| 1787369895 | 37.22° C | 39% | 1006.4 hPa | - | - | - | - |
| 1787368995 | 36.11° C | 40% | 1006.5 hPa | - | - | - | - |
| 1787368148 | 35.56° C | 42% | 1006.6 hPa | - | - | - | - |
| 1787368094 | 35.56° C | 42% | 1006.6 hPa | - | - | - | - |
| 1787367194 | 36.11° C | 40% | 1006.7 hPa | - | - | - | - |
| 1787366294 | 36.11° C | 40% | 1006.8 hPa | - | - | - | - |
| 1787365395 | 37.22° C | 39% | 1006.9 hPa | - | - | - | - |
| 1787364496 | 35.56° C | 42% | 1007 hPa | - | - | - | - |
| 1787364015 | 33.89° C | 51% | 1006.2 hPa | - | - | - | - |
| 1787363596 | 37.22° C | 40% | 1006.8 hPa | - | - | - | - |
| 1787362696 | 37.22° C | 41% | 1006.8 hPa | - | - | - | - |
| 1787361796 | 36.67° C | 41% | 1006.7 hPa | - | - | - | - |
| 1787360896 | 35.56° C | 43% | 1006.8 hPa | - | - | - | - |
| 1787359995 | 37.78° C | 40% | 1006.7 hPa | - | - | - | - |
| 1787359097 | 36.11° C | 43% | 1006.6 hPa | - | - | - | - |
| 1787358195 | 35.56° C | 45% | 1006.4 hPa | - | - | - | - |
* Rain since midnight (hover to see other rain measurements)
** Current wind speed in m/s (hover to see current wind gust speed)